createdAt,value
2022-12-24T00:01:35.673Z,5.30
2022-12-24T00:05:39.949Z,6.37
2022-12-24T00:09:42.626Z,5.27
2022-12-24T00:13:45.326Z,5.87
2022-12-24T00:17:47.995Z,5.07
2022-12-24T00:21:52.006Z,5.77
2022-12-24T00:25:54.644Z,5.13
2022-12-24T00:29:57.327Z,4.97
2022-12-24T00:34:00.246Z,5.90
2022-12-24T00:38:04.416Z,5.27
2022-12-24T00:42:07.338Z,4.53
2022-12-24T00:46:10.036Z,5.73
2022-12-24T00:50:13.086Z,7.10
2022-12-24T00:54:17.499Z,3.97
2022-12-24T00:58:20.129Z,4.93
2022-12-24T01:02:23.423Z,7.10
2022-12-24T01:06:26.188Z,7.17
2022-12-24T01:10:30.471Z,7.13
2022-12-24T01:14:33.128Z,7.80
2022-12-24T01:18:35.825Z,9.13
2022-12-24T01:22:38.513Z,8.73
2022-12-24T01:26:42.949Z,7.67
2022-12-24T01:30:45.678Z,5.13
2022-12-24T01:34:48.700Z,6.20
2022-12-24T01:38:51.431Z,9.27
2022-12-24T01:43:12.933Z,11.43
2022-12-24T01:47:19.179Z,8.17
2022-12-24T01:51:26.205Z,8.87
2022-12-24T01:55:29.065Z,8.07
2022-12-24T01:59:34.026Z,9.40
2022-12-24T02:03:36.806Z,5.93
2022-12-24T02:07:39.844Z,6.97
2022-12-24T02:11:44.648Z,7.67
2022-12-24T02:15:59.568Z,6.87
2022-12-24T02:20:31.633Z,6.47
2022-12-24T02:24:51.939Z,10.00
2022-12-24T02:29:20.040Z,9.93
2022-12-24T02:33:29.376Z,8.13
2022-12-24T02:37:35.440Z,7.77
2022-12-24T02:41:54.681Z,9.40
2022-12-24T02:45:59.915Z,8.27
2022-12-24T02:50:05.149Z,8.20
2022-12-24T02:54:07.844Z,7.33
2022-12-24T02:58:27.846Z,8.10
2022-12-24T03:02:39.373Z,8.33
2022-12-24T03:06:45.685Z,9.53
2022-12-24T03:10:53.099Z,6.93
2022-12-24T03:14:56.071Z,7.13
2022-12-24T03:19:00.844Z,12.00
2022-12-24T03:23:05.815Z,10.37
2022-12-24T03:27:09.941Z,7.00
2022-12-24T03:31:13.180Z,10.00
2022-12-24T03:35:15.945Z,8.53
2022-12-24T03:39:25.192Z,9.10
2022-12-24T03:43:27.977Z,8.90
2022-12-24T03:47:31.945Z,8.87
2022-12-24T03:51:34.969Z,10.20
2022-12-24T03:55:41.244Z,7.93
2022-12-24T03:59:44.497Z,8.93
2022-12-24T04:03:47.325Z,7.93
2022-12-24T04:07:50.036Z,7.83
2022-12-24T04:11:54.413Z,5.90
2022-12-24T04:16:00.942Z,7.33
2022-12-24T04:20:03.731Z,7.50
2022-12-24T04:24:07.139Z,7.37
2022-12-24T04:28:11.798Z,6.90
2022-12-24T04:32:14.866Z,6.73
2022-12-24T04:36:19.430Z,9.50
2022-12-24T04:40:22.155Z,6.83
2022-12-24T04:44:26.305Z,10.43
2022-12-24T04:48:29.027Z,7.50
2022-12-24T04:52:32.012Z,8.07
2022-12-24T04:56:35.011Z,6.30
2022-12-24T05:00:39.343Z,6.97
2022-12-24T05:04:42.463Z,8.13
2022-12-24T05:08:45.554Z,9.67
2022-12-24T05:12:48.539Z,6.60
2022-12-24T05:16:52.983Z,8.60
2022-12-24T05:20:55.736Z,6.63
2022-12-24T05:25:15.687Z,9.97
2022-12-24T05:29:18.554Z,5.50
2022-12-24T05:33:22.894Z,9.03
2022-12-24T05:37:25.668Z,7.93
2022-12-24T05:41:28.534Z,4.73
2022-12-24T05:45:31.270Z,7.73
2022-12-24T05:49:35.369Z,11.17
2022-12-24T05:53:38.338Z,7.00
2022-12-24T05:57:41.779Z,8.33
2022-12-24T06:01:47.224Z,5.73
2022-12-24T06:05:59.245Z,7.17
2022-12-24T06:10:02.214Z,10.67
2022-12-24T06:14:05.116Z,7.47
2022-12-24T06:18:07.822Z,7.20
2022-12-24T06:22:11.939Z,9.87
2022-12-24T06:26:16.284Z,7.50
2022-12-24T06:30:19.037Z,7.33
2022-12-24T06:34:22.108Z,9.80
2022-12-24T06:38:26.280Z,9.43
2022-12-24T06:42:29.015Z,14.93
2022-12-24T06:46:31.821Z,9.07
2022-12-24T06:50:35.284Z,13.20
2022-12-24T06:54:39.635Z,10.23
2022-12-24T06:58:42.947Z,10.23
2022-12-24T07:02:46.091Z,11.40
2022-12-24T07:06:49.015Z,9.37
2022-12-24T07:10:54.643Z,8.97
2022-12-24T07:14:57.794Z,14.47
2022-12-24T07:19:00.562Z,13.60
2022-12-24T07:23:03.601Z,11.20
2022-12-24T07:27:08.874Z,11.00
2022-12-24T07:31:11.903Z,14.30
2022-12-24T07:35:14.693Z,12.27
2022-12-24T07:39:17.742Z,9.33
2022-12-24T07:43:22.133Z,11.13
2022-12-24T07:47:24.916Z,9.27
2022-12-24T07:51:27.938Z,11.50
2022-12-24T07:55:30.724Z,10.40
2022-12-24T07:59:35.207Z,11.93
2022-12-24T08:03:38.243Z,14.93
2022-12-24T08:07:41.349Z,13.03
2022-12-24T08:11:49.885Z,10.90
2022-12-24T08:15:56.805Z,14.27
2022-12-24T08:19:59.754Z,14.73
2022-12-24T08:24:02.890Z,16.53
2022-12-24T08:28:06.642Z,12.60
2022-12-24T08:32:11.155Z,9.40
2022-12-24T08:36:14.033Z,11.47
2022-12-24T08:40:17.113Z,12.17
2022-12-24T08:44:20.340Z,15.10
2022-12-24T08:48:24.709Z,14.80
2022-12-24T08:52:27.507Z,14.77
2022-12-24T08:56:30.252Z,18.00
2022-12-24T09:00:33.258Z,16.00
2022-12-24T09:04:40.007Z,16.87
2022-12-24T09:08:42.775Z,11.37
2022-12-24T09:12:45.491Z,16.13
2022-12-24T09:16:48.299Z,13.00
2022-12-24T09:20:57.265Z,14.37
2022-12-24T09:25:00.269Z,18.20
2022-12-24T09:29:03.454Z,13.70
2022-12-24T09:33:06.446Z,14.73
2022-12-24T09:37:10.527Z,13.40
2022-12-24T09:41:15.576Z,13.87
2022-12-24T09:45:21.318Z,14.87
2022-12-24T09:49:27.626Z,12.10
2022-12-24T09:53:36.946Z,19.30
2022-12-24T09:57:41.773Z,17.67
2022-12-24T10:01:44.720Z,14.60
2022-12-24T10:05:53.598Z,13.90
2022-12-24T10:10:04.715Z,18.67
2022-12-24T10:14:18.612Z,15.70
2022-12-24T10:18:28.532Z,17.33
2022-12-24T10:22:35.460Z,16.47
2022-12-24T10:26:45.875Z,11.97
2022-12-24T10:30:50.076Z,13.03
2022-12-24T10:34:55.133Z,14.23
2022-12-24T10:38:58.223Z,15.70
2022-12-24T10:43:02.748Z,17.10
2022-12-24T10:47:07.377Z,13.50
2022-12-24T10:51:15.958Z,10.00
2022-12-24T10:55:24.652Z,15.90
2022-12-24T10:59:30.789Z,12.90
2022-12-24T11:03:35.560Z,12.43
2022-12-24T11:07:38.361Z,19.93
2022-12-24T11:11:41.104Z,15.17
2022-12-24T11:15:45.703Z,12.80
2022-12-24T11:19:49.726Z,10.60
2022-12-24T11:23:55.245Z,15.17
2022-12-24T11:27:58.257Z,17.03
2022-12-24T11:32:16.636Z,14.43
2022-12-24T11:36:22.656Z,12.90
2022-12-24T11:40:28.480Z,16.57
2022-12-24T11:44:32.057Z,16.63
2022-12-24T11:48:36.389Z,11.90
2022-12-24T11:52:39.567Z,16.20
2022-12-24T11:56:45.407Z,12.00
2022-12-24T12:00:49.268Z,14.67
2022-12-24T12:04:56.356Z,18.63
2022-12-24T12:09:02.957Z,10.90
2022-12-24T12:13:14.677Z,16.27
2022-12-24T12:17:27.668Z,11.90
2022-12-24T12:21:36.403Z,13.33
2022-12-24T12:25:44.513Z,12.80
2022-12-24T12:29:50.754Z,15.17
2022-12-24T12:33:57.605Z,15.97
2022-12-24T12:38:02.708Z,12.13
2022-12-24T12:42:10.184Z,17.23
2022-12-24T12:46:19.550Z,14.87
2022-12-24T12:50:26.885Z,15.87
2022-12-24T12:54:41.396Z,11.97
2022-12-24T12:58:49.939Z,14.77
2022-12-24T13:03:07.625Z,10.87
2022-12-24T13:07:31.480Z,13.80
2022-12-24T13:11:59.972Z,14.00
2022-12-24T13:16:26.886Z,16.47
2022-12-24T13:20:30.853Z,13.00
2022-12-24T13:24:36.087Z,12.27
2022-12-24T13:28:40.183Z,12.10
2022-12-24T13:32:51.657Z,11.37
2022-12-24T13:37:22.068Z,11.10
2022-12-24T13:41:51.892Z,11.60
2022-12-24T13:45:56.104Z,13.97
2022-12-24T13:50:00.474Z,12.30
2022-12-24T13:54:03.589Z,14.80
2022-12-24T13:58:07.716Z,14.57
2022-12-24T14:02:19.989Z,14.77
2022-12-24T14:06:25.163Z,8.77
2022-12-24T14:10:31.792Z,10.90
2022-12-24T14:14:36.519Z,13.40
2022-12-24T14:18:41.910Z,12.40
2022-12-24T14:22:47.721Z,13.80
2022-12-24T14:26:53.552Z,15.97
2022-12-24T14:31:01.765Z,11.57
2022-12-24T14:35:18.464Z,13.40
2022-12-24T14:39:25.455Z,11.93
2022-12-24T14:43:34.075Z,16.43
2022-12-24T14:47:41.605Z,23.03
2022-12-24T14:51:51.646Z,19.70
2022-12-24T14:55:54.406Z,38.33
2022-12-24T14:59:58.744Z,17.03
2022-12-24T15:04:03.192Z,15.83
2022-12-24T15:08:18.614Z,13.67
2022-12-24T15:12:23.211Z,11.07
2022-12-24T15:16:27.471Z,13.07
2022-12-24T15:20:30.614Z,9.67
2022-12-24T15:24:35.995Z,10.07
2022-12-24T15:28:39.635Z,13.70
2022-12-24T15:32:42.450Z,15.47
2022-12-24T15:36:45.157Z,12.27
2022-12-24T15:40:51.388Z,12.97
2022-12-24T15:44:59.914Z,13.70
2022-12-24T15:49:04.363Z,12.57
2022-12-24T15:53:20.619Z,12.03
2022-12-24T15:57:28.112Z,13.80
2022-12-24T16:01:30.929Z,13.17
2022-12-24T16:05:36.861Z,11.43
2022-12-24T16:09:43.908Z,15.80
2022-12-24T16:14:00.466Z,14.07
2022-12-24T16:18:03.276Z,14.00
2022-12-24T16:22:26.123Z,16.07
2022-12-24T16:26:28.900Z,15.33
2022-12-24T16:30:34.534Z,13.97
2022-12-24T16:34:37.316Z,17.07
2022-12-24T16:38:54.145Z,13.30
2022-12-24T16:43:14.721Z,13.23
2022-12-24T16:47:21.193Z,15.53
2022-12-24T16:51:23.885Z,14.23
2022-12-24T16:55:27.017Z,10.70
2022-12-24T16:59:30.119Z,17.47
2022-12-24T17:03:34.724Z,13.93
2022-12-24T17:07:43.085Z,17.57
2022-12-24T17:11:46.593Z,14.43
2022-12-24T17:15:49.386Z,16.37
2022-12-24T17:19:54.864Z,16.63
2022-12-24T17:23:57.656Z,16.10
2022-12-24T17:28:00.336Z,17.37
2022-12-24T17:32:03.145Z,18.50
2022-12-24T17:36:08.369Z,16.97
2022-12-24T17:40:12.628Z,15.90
2022-12-24T17:44:15.594Z,9.73
2022-12-24T17:48:18.349Z,13.87
2022-12-24T17:52:22.483Z,16.37
2022-12-24T17:56:25.207Z,13.73
2022-12-24T18:00:32.780Z,11.07
2022-12-24T18:04:36.056Z,14.87
2022-12-24T18:08:40.861Z,13.90
2022-12-24T18:12:43.588Z,12.93
2022-12-24T18:16:49.617Z,13.70
2022-12-24T18:20:52.559Z,16.53
2022-12-24T18:24:56.616Z,14.70
2022-12-24T18:29:01.086Z,12.53
2022-12-24T18:33:03.897Z,13.23
2022-12-24T18:37:06.606Z,13.07
2022-12-24T18:41:12.240Z,12.60
2022-12-24T18:45:15.018Z,14.67
2022-12-24T18:49:17.813Z,12.50
2022-12-24T18:53:20.537Z,12.50
2022-12-24T18:57:24.693Z,14.13
2022-12-24T19:01:28.579Z,14.40
2022-12-24T19:05:31.710Z,17.23
2022-12-24T19:09:34.554Z,18.70
2022-12-24T19:13:38.791Z,14.50
2022-12-24T19:17:41.862Z,21.10
2022-12-24T19:21:44.882Z,14.80
2022-12-24T19:25:47.651Z,21.43
2022-12-24T19:29:52.337Z,18.97
2022-12-24T19:33:56.780Z,20.13
2022-12-24T19:37:59.825Z,19.60
2022-12-24T19:42:02.878Z,21.37
2022-12-24T19:46:08.503Z,20.33
2022-12-24T19:50:12.571Z,19.80
2022-12-24T19:54:19.200Z,14.30
2022-12-24T19:58:22.277Z,16.13
2022-12-24T20:02:26.739Z,16.23
2022-12-24T20:06:31.880Z,15.37
2022-12-24T20:10:39.673Z,18.47
2022-12-24T20:14:42.364Z,16.23
2022-12-24T20:18:52.026Z,16.47
2022-12-24T20:22:54.813Z,18.97
2022-12-24T20:26:57.750Z,16.67
2022-12-24T20:31:00.503Z,18.50
2022-12-24T20:35:05.670Z,15.73
2022-12-24T20:39:08.419Z,17.63
2022-12-24T20:43:11.831Z,17.07
2022-12-24T20:47:14.612Z,16.20
2022-12-24T20:51:24.780Z,10.97
2022-12-24T20:55:28.184Z,13.47
2022-12-24T20:59:30.938Z,12.83
2022-12-24T21:03:33.929Z,14.57
2022-12-24T21:07:38.974Z,14.13
2022-12-24T21:11:59.399Z,19.03
2022-12-24T21:16:02.168Z,19.33
2022-12-24T21:20:05.333Z,17.17
2022-12-24T21:24:10.419Z,18.57
2022-12-24T21:28:13.167Z,15.77
2022-12-24T21:32:16.008Z,19.20
2022-12-24T21:36:18.862Z,14.57
2022-12-24T21:40:23.189Z,16.17
2022-12-24T21:44:25.940Z,15.27
2022-12-24T21:48:45.881Z,13.13
2022-12-24T21:52:49.047Z,16.63
2022-12-24T21:57:11.724Z,16.10
2022-12-24T22:01:14.865Z,13.53
2022-12-24T22:05:17.952Z,14.73
2022-12-24T22:09:38.140Z,13.83
2022-12-24T22:13:42.196Z,11.37
2022-12-24T22:17:44.973Z,17.13
2022-12-24T22:21:47.632Z,17.47
2022-12-24T22:25:50.409Z,12.90
2022-12-24T22:29:54.565Z,23.47
2022-12-24T22:33:57.299Z,28.80
2022-12-24T22:38:00.715Z,15.73
2022-12-24T22:42:03.641Z,17.53
2022-12-24T22:46:08.112Z,14.63
2022-12-24T22:50:12.522Z,13.17
2022-12-24T22:54:15.943Z,12.97
2022-12-24T22:58:18.719Z,10.77
2022-12-24T23:02:28.175Z,9.67
2022-12-24T23:06:31.405Z,11.87
2022-12-24T23:10:34.701Z,15.63
2022-12-24T23:14:55.047Z,11.20
2022-12-24T23:19:01.025Z,16.03
2022-12-24T23:23:03.811Z,11.47
2022-12-24T23:27:07.277Z,12.47
2022-12-24T23:31:11.189Z,14.20
2022-12-24T23:35:15.348Z,12.10
2022-12-24T23:39:18.092Z,12.53
2022-12-24T23:43:20.779Z,14.53
2022-12-24T23:47:23.958Z,18.30
2022-12-24T23:51:29.667Z,19.30
2022-12-24T23:55:32.447Z,18.93
2022-12-24T23:59:35.516Z,17.80
